sensor_id;sensor_type;location;lat;lon;timestamp;P1;durP1;ratioP1;P2;durP2;ratioP2
62475;SDS011;50739;45.670;11.936;2023-07-08T00:02:37;5.93;;;4.03;;
62475;SDS011;50739;45.670;11.936;2023-07-08T00:07:41;7.63;;;4.20;;
62475;SDS011;50739;45.670;11.936;2023-07-08T00:12:44;7.07;;;4.43;;
62475;SDS011;50739;45.670;11.936;2023-07-08T00:17:48;6.55;;;3.85;;
62475;SDS011;50739;45.670;11.936;2023-07-08T00:22:51;6.78;;;3.63;;
62475;SDS011;50739;45.670;11.936;2023-07-08T00:27:53;5.55;;;3.65;;
62475;SDS011;50739;45.670;11.936;2023-07-08T00:32:56;7.78;;;3.85;;
62475;SDS011;50739;45.670;11.936;2023-07-08T00:38:01;4.60;;;3.43;;
62475;SDS011;50739;45.670;11.936;2023-07-08T00:43:04;5.93;;;3.70;;
62475;SDS011;50739;45.670;11.936;2023-07-08T00:48:12;5.97;;;3.63;;
62475;SDS011;50739;45.670;11.936;2023-07-08T00:53:25;5.63;;;3.55;;
62475;SDS011;50739;45.670;11.936;2023-07-08T00:58:30;4.88;;;3.30;;
62475;SDS011;50739;45.670;11.936;2023-07-08T01:03:37;4.90;;;3.50;;
62475;SDS011;50739;45.670;11.936;2023-07-08T01:08:46;5.40;;;3.80;;
62475;SDS011;50739;45.670;11.936;2023-07-08T01:13:50;5.73;;;3.40;;
62475;SDS011;50739;45.670;11.936;2023-07-08T01:18:54;5.33;;;3.87;;
62475;SDS011;50739;45.670;11.936;2023-07-08T01:23:58;6.22;;;4.18;;
62475;SDS011;50739;45.670;11.936;2023-07-08T01:29:02;5.65;;;3.72;;
62475;SDS011;50739;45.670;11.936;2023-07-08T01:34:05;6.45;;;3.97;;
62475;SDS011;50739;45.670;11.936;2023-07-08T01:39:12;7.10;;;4.70;;
62475;SDS011;50739;45.670;11.936;2023-07-08T01:44:27;6.10;;;4.47;;
62475;SDS011;50739;45.670;11.936;2023-07-08T01:49:31;7.43;;;4.65;;
62475;SDS011;50739;45.670;11.936;2023-07-08T01:54:36;8.00;;;5.32;;
62475;SDS011;50739;45.670;11.936;2023-07-08T01:59:39;8.03;;;5.53;;
62475;SDS011;50739;45.670;11.936;2023-07-08T02:04:41;7.30;;;5.45;;
62475;SDS011;50739;45.670;11.936;2023-07-08T02:09:44;10.30;;;6.40;;
62475;SDS011;50739;45.670;11.936;2023-07-08T02:14:47;9.57;;;5.55;;
62475;SDS011;50739;45.670;11.936;2023-07-08T02:19:49;9.13;;;5.90;;
62475;SDS011;50739;45.670;11.936;2023-07-08T02:24:52;8.90;;;6.07;;
62475;SDS011;50739;45.670;11.936;2023-07-08T02:29:55;8.35;;;5.20;;
62475;SDS011;50739;45.670;11.936;2023-07-08T02:34:57;8.13;;;5.63;;
62475;SDS011;50739;45.670;11.936;2023-07-08T02:40:01;10.15;;;5.50;;
62475;SDS011;50739;45.670;11.936;2023-07-08T02:45:03;6.73;;;5.30;;
62475;SDS011;50739;45.670;11.936;2023-07-08T02:50:07;7.80;;;5.38;;
62475;SDS011;50739;45.670;11.936;2023-07-08T02:55:11;7.50;;;5.33;;
62475;SDS011;50739;45.670;11.936;2023-07-08T03:00:14;9.35;;;5.88;;
62475;SDS011;50739;45.670;11.936;2023-07-08T03:05:17;10.73;;;6.60;;
62475;SDS011;50739;45.670;11.936;2023-07-08T03:10:21;8.20;;;6.22;;
62475;SDS011;50739;45.670;11.936;2023-07-08T03:15:23;9.82;;;6.47;;
62475;SDS011;50739;45.670;11.936;2023-07-08T03:20:25;11.18;;;6.60;;
62475;SDS011;50739;45.670;11.936;2023-07-08T03:25:29;10.48;;;6.63;;
62475;SDS011;50739;45.670;11.936;2023-07-08T03:30:31;9.98;;;6.15;;
62475;SDS011;50739;45.670;11.936;2023-07-08T03:35:34;9.65;;;6.70;;
62475;SDS011;50739;45.670;11.936;2023-07-08T03:40:38;9.90;;;6.97;;
62475;SDS011;50739;45.670;11.936;2023-07-08T03:45:40;10.75;;;7.13;;
62475;SDS011;50739;45.670;11.936;2023-07-08T03:50:42;11.57;;;7.63;;
62475;SDS011;50739;45.670;11.936;2023-07-08T03:55:46;10.40;;;7.03;;
62475;SDS011;50739;45.670;11.936;2023-07-08T04:00:48;10.95;;;7.00;;
62475;SDS011;50739;45.670;11.936;2023-07-08T04:05:51;10.88;;;7.10;;
62475;SDS011;50739;45.670;11.936;2023-07-08T04:10:54;10.00;;;6.57;;
62475;SDS011;50739;45.670;11.936;2023-07-08T04:15:57;10.55;;;6.35;;
62475;SDS011;50739;45.670;11.936;2023-07-08T04:21:03;8.73;;;6.03;;
62475;SDS011;50739;45.670;11.936;2023-07-08T04:26:08;7.20;;;5.55;;
62475;SDS011;50739;45.670;11.936;2023-07-08T04:31:11;8.43;;;5.50;;
62475;SDS011;50739;45.670;11.936;2023-07-08T04:36:13;7.88;;;5.40;;
62475;SDS011;50739;45.670;11.936;2023-07-08T04:41:17;8.33;;;5.17;;
62475;SDS011;50739;45.670;11.936;2023-07-08T04:46:21;7.67;;;5.13;;
62475;SDS011;50739;45.670;11.936;2023-07-08T04:51:31;6.90;;;5.07;;
62475;SDS011;50739;45.670;11.936;2023-07-08T04:56:36;7.13;;;5.13;;
62475;SDS011;50739;45.670;11.936;2023-07-08T05:01:40;7.00;;;4.30;;
62475;SDS011;50739;45.670;11.936;2023-07-08T05:06:43;6.10;;;4.17;;
62475;SDS011;50739;45.670;11.936;2023-07-08T05:11:47;6.85;;;4.55;;
62475;SDS011;50739;45.670;11.936;2023-07-08T05:16:49;5.90;;;3.93;;
62475;SDS011;50739;45.670;11.936;2023-07-08T05:21:51;6.32;;;4.25;;
62475;SDS011;50739;45.670;11.936;2023-07-08T05:26:55;6.07;;;4.10;;
62475;SDS011;50739;45.670;11.936;2023-07-08T05:31:59;6.67;;;3.80;;
62475;SDS011;50739;45.670;11.936;2023-07-08T05:37:01;5.80;;;3.80;;
62475;SDS011;50739;45.670;11.936;2023-07-08T05:42:05;6.03;;;3.78;;
62475;SDS011;50739;45.670;11.936;2023-07-08T05:47:08;6.53;;;3.75;;
62475;SDS011;50739;45.670;11.936;2023-07-08T05:52:10;6.70;;;4.07;;
62475;SDS011;50739;45.670;11.936;2023-07-08T05:57:14;7.72;;;3.90;;
62475;SDS011;50739;45.670;11.936;2023-07-08T06:02:16;5.72;;;4.00;;
62475;SDS011;50739;45.670;11.936;2023-07-08T06:07:20;6.35;;;3.65;;
62475;SDS011;50739;45.670;11.936;2023-07-08T06:12:24;6.95;;;3.72;;
62475;SDS011;50739;45.670;11.936;2023-07-08T06:17:26;8.00;;;3.58;;
62475;SDS011;50739;45.670;11.936;2023-07-08T06:22:28;6.03;;;3.97;;
62475;SDS011;50739;45.670;11.936;2023-07-08T06:27:32;5.53;;;3.70;;
62475;SDS011;50739;45.670;11.936;2023-07-08T06:32:34;6.40;;;3.90;;
62475;SDS011;50739;45.670;11.936;2023-07-08T06:37:37;5.75;;;3.85;;
62475;SDS011;50739;45.670;11.936;2023-07-08T06:42:40;6.60;;;4.17;;
62475;SDS011;50739;45.670;11.936;2023-07-08T06:47:42;7.60;;;4.10;;
62475;SDS011;50739;45.670;11.936;2023-07-08T06:52:45;5.65;;;4.10;;
62475;SDS011;50739;45.670;11.936;2023-07-08T06:57:49;7.47;;;4.07;;
62475;SDS011;50739;45.670;11.936;2023-07-08T07:02:52;9.03;;;4.40;;
62475;SDS011;50739;45.670;11.936;2023-07-08T07:07:54;6.80;;;4.17;;
62475;SDS011;50739;45.670;11.936;2023-07-08T07:12:58;7.50;;;4.10;;
62475;SDS011;50739;45.670;11.936;2023-07-08T07:18:01;6.30;;;4.03;;
62475;SDS011;50739;45.670;11.936;2023-07-08T07:23:03;7.97;;;4.10;;
62475;SDS011;50739;45.670;11.936;2023-07-08T07:28:07;7.47;;;4.55;;
62475;SDS011;50739;45.670;11.936;2023-07-08T07:33:09;6.78;;;4.35;;
62475;SDS011;50739;45.670;11.936;2023-07-08T07:38:13;7.82;;;4.35;;
62475;SDS011;50739;45.670;11.936;2023-07-08T07:43:18;6.07;;;4.17;;
62475;SDS011;50739;45.670;11.936;2023-07-08T07:48:20;7.80;;;4.60;;
62475;SDS011;50739;45.670;11.936;2023-07-08T07:53:24;6.35;;;3.70;;
62475;SDS011;50739;45.670;11.936;2023-07-08T07:58:28;6.38;;;3.83;;
62475;SDS011;50739;45.670;11.936;2023-07-08T08:03:31;9.00;;;4.30;;
62475;SDS011;50739;45.670;11.936;2023-07-08T08:08:34;7.95;;;4.28;;
62475;SDS011;50739;45.670;11.936;2023-07-08T08:13:37;5.63;;;3.83;;
62475;SDS011;50739;45.670;11.936;2023-07-08T08:18:40;7.72;;;4.25;;
62475;SDS011;50739;45.670;11.936;2023-07-08T08:23:42;6.80;;;4.07;;
62475;SDS011;50739;45.670;11.936;2023-07-08T08:28:45;6.65;;;4.10;;
62475;SDS011;50739;45.670;11.936;2023-07-08T08:33:48;6.30;;;4.00;;
62475;SDS011;50739;45.670;11.936;2023-07-08T08:38:53;5.38;;;3.50;;
62475;SDS011;50739;45.670;11.936;2023-07-08T08:43:56;5.13;;;3.78;;
62475;SDS011;50739;45.670;11.936;2023-07-08T08:48:59;6.90;;;4.10;;
62475;SDS011;50739;45.670;11.936;2023-07-08T08:54:13;6.47;;;4.18;;
62475;SDS011;50739;45.670;11.936;2023-07-08T08:59:18;15.73;;;4.30;;
62475;SDS011;50739;45.670;11.936;2023-07-08T09:04:29;7.07;;;4.32;;
62475;SDS011;50739;45.670;11.936;2023-07-08T09:09:38;5.65;;;3.60;;
62475;SDS011;50739;45.670;11.936;2023-07-08T09:14:50;6.15;;;3.50;;
62475;SDS011;50739;45.670;11.936;2023-07-08T09:19:54;11.40;;;4.72;;
62475;SDS011;50739;45.670;11.936;2023-07-08T09:25:03;6.32;;;3.50;;
62475;SDS011;50739;45.670;11.936;2023-07-08T09:30:10;7.80;;;4.18;;
62475;SDS011;50739;45.670;11.936;2023-07-08T09:35:17;6.70;;;3.63;;
62475;SDS011;50739;45.670;11.936;2023-07-08T09:40:21;5.53;;;3.80;;
62475;SDS011;50739;45.670;11.936;2023-07-08T09:45:39;5.03;;;3.30;;
62475;SDS011;50739;45.670;11.936;2023-07-08T09:50:43;4.73;;;3.70;;
62475;SDS011;50739;45.670;11.936;2023-07-08T09:55:53;4.78;;;3.22;;
62475;SDS011;50739;45.670;11.936;2023-07-08T10:01:00;5.45;;;3.47;;
62475;SDS011;50739;45.670;11.936;2023-07-08T10:06:14;6.75;;;3.80;;
62475;SDS011;50739;45.670;11.936;2023-07-08T10:11:25;4.57;;;3.28;;
62475;SDS011;50739;45.670;11.936;2023-07-08T10:16:31;6.43;;;4.10;;
62475;SDS011;50739;45.670;11.936;2023-07-08T10:21:37;5.40;;;3.57;;
62475;SDS011;50739;45.670;11.936;2023-07-08T10:26:49;5.73;;;3.83;;
62475;SDS011;50739;45.670;11.936;2023-07-08T10:32:02;5.78;;;3.60;;
62475;SDS011;50739;45.670;11.936;2023-07-08T10:37:17;5.00;;;3.20;;
62475;SDS011;50739;45.670;11.936;2023-07-08T10:47:59;5.35;;;3.40;;
62475;SDS011;50739;45.670;11.936;2023-07-08T10:53:18;5.43;;;3.60;;
62475;SDS011;50739;45.670;11.936;2023-07-08T11:04:05;5.25;;;3.08;;
62475;SDS011;50739;45.670;11.936;2023-07-08T11:09:21;5.20;;;3.20;;
62475;SDS011;50739;45.670;11.936;2023-07-08T11:14:35;5.17;;;3.17;;
62475;SDS011;50739;45.670;11.936;2023-07-08T11:19:47;4.88;;;2.88;;
62475;SDS011;50739;45.670;11.936;2023-07-08T11:24:54;4.65;;;3.50;;
62475;SDS011;50739;45.670;11.936;2023-07-08T11:29:59;3.85;;;3.08;;
62475;SDS011;50739;45.670;11.936;2023-07-08T11:35:13;4.60;;;3.10;;
62475;SDS011;50739;45.670;11.936;2023-07-08T11:40:22;3.85;;;2.83;;
62475;SDS011;50739;45.670;11.936;2023-07-08T11:45:25;3.53;;;2.80;;
62475;SDS011;50739;45.670;11.936;2023-07-08T11:50:35;4.07;;;2.90;;
62475;SDS011;50739;45.670;11.936;2023-07-08T11:55:42;4.25;;;2.92;;
62475;SDS011;50739;45.670;11.936;2023-07-08T12:00:51;5.57;;;2.92;;
62475;SDS011;50739;45.670;11.936;2023-07-08T12:06:00;4.43;;;3.17;;
62475;SDS011;50739;45.670;11.936;2023-07-08T12:11:07;5.23;;;3.07;;
62475;SDS011;50739;45.670;11.936;2023-07-08T12:16:13;3.85;;;2.88;;
62475;SDS011;50739;45.670;11.936;2023-07-08T12:21:17;4.03;;;2.87;;
62475;SDS011;50739;45.670;11.936;2023-07-08T12:26:19;4.18;;;2.85;;
62475;SDS011;50739;45.670;11.936;2023-07-08T12:31:23;3.80;;;2.88;;
62475;SDS011;50739;45.670;11.936;2023-07-08T12:36:28;5.07;;;3.08;;
62475;SDS011;50739;45.670;11.936;2023-07-08T12:41:33;5.60;;;3.35;;
62475;SDS011;50739;45.670;11.936;2023-07-08T12:46:36;4.70;;;2.80;;
62475;SDS011;50739;45.670;11.936;2023-07-08T12:51:42;3.63;;;3.10;;
62475;SDS011;50739;45.670;11.936;2023-07-08T12:56:45;5.03;;;2.85;;
62475;SDS011;50739;45.670;11.936;2023-07-08T13:01:48;5.18;;;3.03;;
62475;SDS011;50739;45.670;11.936;2023-07-08T13:06:53;4.55;;;2.97;;
62475;SDS011;50739;45.670;11.936;2023-07-08T13:11:56;5.77;;;2.97;;
62475;SDS011;50739;45.670;11.936;2023-07-08T13:16:59;4.68;;;3.30;;
62475;SDS011;50739;45.670;11.936;2023-07-08T13:22:03;4.93;;;3.10;;
62475;SDS011;50739;45.670;11.936;2023-07-08T13:27:08;4.80;;;3.23;;
62475;SDS011;50739;45.670;11.936;2023-07-08T13:32:16;5.15;;;2.95;;
62475;SDS011;50739;45.670;11.936;2023-07-08T13:37:20;5.38;;;3.25;;
62475;SDS011;50739;45.670;11.936;2023-07-08T13:42:26;5.80;;;2.83;;
62475;SDS011;50739;45.670;11.936;2023-07-08T13:47:29;6.32;;;3.13;;
62475;SDS011;50739;45.670;11.936;2023-07-08T13:52:33;4.88;;;2.92;;
62475;SDS011;50739;45.670;11.936;2023-07-08T13:57:37;5.28;;;3.13;;
62475;SDS011;50739;45.670;11.936;2023-07-08T14:02:43;3.80;;;2.50;;
62475;SDS011;50739;45.670;11.936;2023-07-08T14:07:47;5.22;;;2.90;;
62475;SDS011;50739;45.670;11.936;2023-07-08T14:12:50;4.97;;;3.00;;
62475;SDS011;50739;45.670;11.936;2023-07-08T14:17:53;4.72;;;2.90;;
62475;SDS011;50739;45.670;11.936;2023-07-08T14:22:57;3.60;;;2.90;;
62475;SDS011;50739;45.670;11.936;2023-07-08T14:27:59;5.20;;;3.28;;
62475;SDS011;50739;45.670;11.936;2023-07-08T14:33:03;4.63;;;2.90;;
62475;SDS011;50739;45.670;11.936;2023-07-08T14:38:09;4.95;;;3.00;;
62475;SDS011;50739;45.670;11.936;2023-07-08T14:43:13;4.68;;;2.70;;
62475;SDS011;50739;45.670;11.936;2023-07-08T14:48:19;4.78;;;3.28;;
62475;SDS011;50739;45.670;11.936;2023-07-08T14:53:23;3.90;;;2.57;;
62475;SDS011;50739;45.670;11.936;2023-07-08T14:58:26;4.05;;;2.80;;
62475;SDS011;50739;45.670;11.936;2023-07-08T15:03:31;4.45;;;2.88;;
62475;SDS011;50739;45.670;11.936;2023-07-08T15:08:34;4.50;;;2.60;;
62475;SDS011;50739;45.670;11.936;2023-07-08T15:13:37;4.97;;;3.25;;
62475;SDS011;50739;45.670;11.936;2023-07-08T15:18:40;4.80;;;2.97;;
62475;SDS011;50739;45.670;11.936;2023-07-08T15:23:44;4.67;;;2.90;;
62475;SDS011;50739;45.670;11.936;2023-07-08T15:28:47;2.73;;;2.43;;
62475;SDS011;50739;45.670;11.936;2023-07-08T15:33:52;3.60;;;2.90;;
62475;SDS011;50739;45.670;11.936;2023-07-08T15:38:56;4.55;;;3.13;;
62475;SDS011;50739;45.670;11.936;2023-07-08T15:43:58;4.05;;;2.97;;
62475;SDS011;50739;45.670;11.936;2023-07-08T15:49:04;3.33;;;2.67;;
62475;SDS011;50739;45.670;11.936;2023-07-08T15:54:16;7.88;;;2.70;;
62475;SDS011;50739;45.670;11.936;2023-07-08T15:59:20;3.58;;;2.80;;
62475;SDS011;50739;45.670;11.936;2023-07-08T16:04:29;5.30;;;3.22;;
62475;SDS011;50739;45.670;11.936;2023-07-08T16:09:35;4.50;;;2.97;;
62475;SDS011;50739;45.670;11.936;2023-07-08T16:14:37;4.15;;;2.75;;
62475;SDS011;50739;45.670;11.936;2023-07-08T16:19:39;5.47;;;2.95;;
62475;SDS011;50739;45.670;11.936;2023-07-08T16:24:44;5.03;;;2.95;;
62475;SDS011;50739;45.670;11.936;2023-07-08T16:29:46;4.28;;;2.80;;
62475;SDS011;50739;45.670;11.936;2023-07-08T16:34:49;3.37;;;2.77;;
62475;SDS011;50739;45.670;11.936;2023-07-08T16:39:52;4.80;;;3.00;;
62475;SDS011;50739;45.670;11.936;2023-07-08T16:44:56;4.77;;;3.07;;
62475;SDS011;50739;45.670;11.936;2023-07-08T16:49:58;4.32;;;3.00;;
62475;SDS011;50739;45.670;11.936;2023-07-08T16:55:04;4.35;;;2.90;;
62475;SDS011;50739;45.670;11.936;2023-07-08T17:00:11;4.70;;;3.07;;
62475;SDS011;50739;45.670;11.936;2023-07-08T17:05:17;4.43;;;2.70;;
62475;SDS011;50739;45.670;11.936;2023-07-08T17:10:22;4.23;;;3.10;;
62475;SDS011;50739;45.670;11.936;2023-07-08T17:15:26;5.25;;;3.53;;
62475;SDS011;50739;45.670;11.936;2023-07-08T17:20:31;5.03;;;3.70;;
62475;SDS011;50739;45.670;11.936;2023-07-08T17:25:37;6.57;;;4.20;;
62475;SDS011;50739;45.670;11.936;2023-07-08T17:30:39;5.53;;;3.77;;
62475;SDS011;50739;45.670;11.936;2023-07-08T17:35:42;4.47;;;2.80;;
62475;SDS011;50739;45.670;11.936;2023-07-08T17:40:49;4.47;;;3.27;;
62475;SDS011;50739;45.670;11.936;2023-07-08T17:45:51;4.45;;;3.63;;
62475;SDS011;50739;45.670;11.936;2023-07-08T17:50:54;4.32;;;3.10;;
62475;SDS011;50739;45.670;11.936;2023-07-08T17:55:57;6.07;;;3.00;;
62475;SDS011;50739;45.670;11.936;2023-07-08T18:01:00;5.30;;;3.50;;
62475;SDS011;50739;45.670;11.936;2023-07-08T18:06:03;3.67;;;2.97;;
62475;SDS011;50739;45.670;11.936;2023-07-08T18:11:07;4.83;;;2.87;;
62475;SDS011;50739;45.670;11.936;2023-07-08T18:16:12;4.35;;;3.30;;
62475;SDS011;50739;45.670;11.936;2023-07-08T18:21:17;4.45;;;3.03;;
62475;SDS011;50739;45.670;11.936;2023-07-08T18:26:23;4.60;;;3.40;;
62475;SDS011;50739;45.670;11.936;2023-07-08T18:31:27;5.32;;;3.03;;
62475;SDS011;50739;45.670;11.936;2023-07-08T18:36:32;5.80;;;2.97;;
62475;SDS011;50739;45.670;11.936;2023-07-08T18:41:39;4.43;;;2.90;;
62475;SDS011;50739;45.670;11.936;2023-07-08T18:46:43;4.20;;;2.85;;
62475;SDS011;50739;45.670;11.936;2023-07-08T18:51:46;6.95;;;3.47;;
62475;SDS011;50739;45.670;11.936;2023-07-08T18:56:51;6.10;;;3.42;;
62475;SDS011;50739;45.670;11.936;2023-07-08T19:01:53;4.83;;;2.90;;
62475;SDS011;50739;45.670;11.936;2023-07-08T19:06:55;4.87;;;3.10;;
62475;SDS011;50739;45.670;11.936;2023-07-08T19:12:00;6.43;;;3.30;;
62475;SDS011;50739;45.670;11.936;2023-07-08T19:17:02;6.32;;;3.30;;
62475;SDS011;50739;45.670;11.936;2023-07-08T19:22:05;4.70;;;3.42;;
62475;SDS011;50739;45.670;11.936;2023-07-08T19:27:13;5.82;;;3.40;;
62475;SDS011;50739;45.670;11.936;2023-07-08T19:32:17;5.27;;;3.33;;
62475;SDS011;50739;45.670;11.936;2023-07-08T19:37:20;4.27;;;3.03;;
62475;SDS011;50739;45.670;11.936;2023-07-08T19:42:24;5.60;;;3.60;;
62475;SDS011;50739;45.670;11.936;2023-07-08T19:47:27;5.03;;;3.40;;
62475;SDS011;50739;45.670;11.936;2023-07-08T19:52:29;4.70;;;3.50;;
62475;SDS011;50739;45.670;11.936;2023-07-08T19:57:39;4.63;;;3.40;;
62475;SDS011;50739;45.670;11.936;2023-07-08T20:02:43;3.97;;;3.30;;
62475;SDS011;50739;45.670;11.936;2023-07-08T20:07:45;5.53;;;3.20;;
62475;SDS011;50739;45.670;11.936;2023-07-08T20:12:49;5.03;;;3.50;;
62475;SDS011;50739;45.670;11.936;2023-07-08T20:17:52;5.40;;;3.35;;
62475;SDS011;50739;45.670;11.936;2023-07-08T20:22:55;6.63;;;3.70;;
62475;SDS011;50739;45.670;11.936;2023-07-08T20:27:58;8.10;;;4.20;;
62475;SDS011;50739;45.670;11.936;2023-07-08T20:33:00;6.65;;;4.15;;
62475;SDS011;50739;45.670;11.936;2023-07-08T20:38:03;7.80;;;4.20;;
62475;SDS011;50739;45.670;11.936;2023-07-08T20:43:09;6.55;;;4.43;;
62475;SDS011;50739;45.670;11.936;2023-07-08T20:48:13;5.75;;;4.20;;
62475;SDS011;50739;45.670;11.936;2023-07-08T20:53:23;6.40;;;4.22;;
62475;SDS011;50739;45.670;11.936;2023-07-08T20:58:27;6.57;;;4.13;;
62475;SDS011;50739;45.670;11.936;2023-07-08T21:03:30;6.83;;;4.67;;
62475;SDS011;50739;45.670;11.936;2023-07-08T21:08:34;6.57;;;4.00;;
62475;SDS011;50739;45.670;11.936;2023-07-08T21:13:39;6.47;;;4.07;;
62475;SDS011;50739;45.670;11.936;2023-07-08T21:18:41;4.60;;;3.80;;
62475;SDS011;50739;45.670;11.936;2023-07-08T21:23:44;6.80;;;4.37;;
62475;SDS011;50739;45.670;11.936;2023-07-08T21:28:49;5.95;;;3.80;;
62475;SDS011;50739;45.670;11.936;2023-07-08T21:33:52;7.72;;;4.28;;
62475;SDS011;50739;45.670;11.936;2023-07-08T21:38:55;6.38;;;4.22;;
62475;SDS011;50739;45.670;11.936;2023-07-08T21:44:01;6.78;;;4.32;;
62475;SDS011;50739;45.670;11.936;2023-07-08T21:49:04;7.40;;;4.53;;
62475;SDS011;50739;45.670;11.936;2023-07-08T21:54:06;7.10;;;4.95;;
62475;SDS011;50739;45.670;11.936;2023-07-08T21:59:16;7.23;;;4.20;;
62475;SDS011;50739;45.670;11.936;2023-07-08T22:04:19;6.77;;;4.30;;
62475;SDS011;50739;45.670;11.936;2023-07-08T22:09:23;6.37;;;4.83;;
62475;SDS011;50739;45.670;11.936;2023-07-08T22:14:26;5.82;;;4.20;;
62475;SDS011;50739;45.670;11.936;2023-07-08T22:19:28;6.45;;;4.20;;
62475;SDS011;50739;45.670;11.936;2023-07-08T22:24:31;5.70;;;4.07;;
62475;SDS011;50739;45.670;11.936;2023-07-08T22:29:34;6.50;;;4.20;;
62475;SDS011;50739;45.670;11.936;2023-07-08T22:34:37;6.70;;;4.28;;
62475;SDS011;50739;45.670;11.936;2023-07-08T22:39:39;5.75;;;4.03;;
62475;SDS011;50739;45.670;11.936;2023-07-08T22:44:43;6.13;;;3.85;;
62475;SDS011;50739;45.670;11.936;2023-07-08T22:49:45;5.95;;;4.10;;
62475;SDS011;50739;45.670;11.936;2023-07-08T22:54:48;6.90;;;4.47;;
62475;SDS011;50739;45.670;11.936;2023-07-08T22:59:51;6.38;;;4.70;;
62475;SDS011;50739;45.670;11.936;2023-07-08T23:04:54;6.72;;;4.20;;
62475;SDS011;50739;45.670;11.936;2023-07-08T23:09:56;6.57;;;4.40;;
62475;SDS011;50739;45.670;11.936;2023-07-08T23:15:00;9.23;;;6.90;;
62475;SDS011;50739;45.670;11.936;2023-07-08T23:20:02;11.25;;;5.90;;
62475;SDS011;50739;45.670;11.936;2023-07-08T23:25:07;7.18;;;4.85;;
62475;SDS011;50739;45.670;11.936;2023-07-08T23:30:13;8.10;;;5.70;;
62475;SDS011;50739;45.670;11.936;2023-07-08T23:35:17;10.97;;;6.33;;
62475;SDS011;50739;45.670;11.936;2023-07-08T23:40:20;9.82;;;6.50;;
62475;SDS011;50739;45.670;11.936;2023-07-08T23:45:24;9.00;;;6.93;;
62475;SDS011;50739;45.670;11.936;2023-07-08T23:50:27;11.75;;;6.97;;
62475;SDS011;50739;45.670;11.936;2023-07-08T23:55:31;10.15;;;7.03;;
